Time;durP1;ratioP1;P1;durP2;ratioP2;P2;SDS_P1;SDS_P2;PMS_P1;PMS_P2;Temp;Humidity;BMP_temperature;BMP_pressure;BME280_temperature;BME280_humidity;BME280_pressure;Samples;Min_cycle;Max_cycle;Signal;HPM_P1;HPM_P2
2022/02/26 00:00:13;;;;;;;27.55;16.65;;;27.40;75.80;;;;;;5104553;28;20026;-37
2022/02/26 00:02:39;;;;;;;22.00;16.70;;;27.40;75.60;;;;;;5104756;28;20032;-44
2022/02/26 00:05:06;;;;;;;23.48;16.27;;;27.40;75.60;;;;;;5104496;28;20031;-42
2022/02/26 00:07:35;;;;;;;22.92;16.60;;;27.40;75.20;;;;;;5104728;28;20317;-45
2022/02/26 00:10:03;;;;;;;18.55;15.98;;;27.40;75.40;;;;;;5103491;28;20042;-45
2022/02/26 00:12:30;;;;;;;23.77;16.98;;;27.40;75.70;;;;;;5104800;28;20020;-45
2022/02/26 00:14:57;;;;;;;19.67;16.38;;;27.40;75.70;;;;;;5104457;28;20039;-43
2022/02/26 00:17:23;;;;;;;32.88;17.05;;;27.40;75.60;;;;;;5104649;28;20324;-45
2022/02/26 00:19:50;;;;;;;25.27;17.48;;;27.40;75.70;;;;;;5104272;28;20089;-44
2022/02/26 00:22:16;;;;;;;20.42;16.80;;;27.30;75.50;;;;;;5104665;28;20438;-48
2022/02/26 00:24:43;;;;;;;26.35;17.00;;;27.30;75.50;;;;;;5104245;28;20115;-46
2022/02/26 00:27:09;;;;;;;32.03;17.88;;;27.40;75.80;;;;;;5104465;28;20028;-47
2022/02/26 00:29:37;;;;;;;36.65;17.88;;;27.30;76.10;;;;;;5104656;28;20024;-44
2022/02/26 00:32:04;;;;;;;25.55;17.50;;;27.30;76.10;;;;;;5104645;28;20028;-44
2022/02/26 00:34:31;;;;;;;28.98;16.92;;;27.30;75.60;;;;;;5104091;28;20020;-45
2022/02/26 00:36:59;;;;;;;33.22;17.27;;;27.30;75.50;;;;;;5104194;28;20023;-43
2022/02/26 00:39:26;;;;;;;34.53;18.75;;;27.30;75.20;;;;;;5104497;28;20097;-44
2022/02/26 00:41:52;;;;;;;28.27;18.33;;;27.30;75.20;;;;;;5104084;28;20031;-42
2022/02/26 00:44:20;;;;;;;30.60;20.42;;;27.20;75.20;;;;;;5104230;28;20057;-49
2022/02/26 00:46:48;;;;;;;40.63;27.42;;;27.20;75.00;;;;;;5103847;28;20093;-45
2022/02/26 00:52:03;;;;;;;39.50;28.05;;;27.20;74.60;;;;;;5083934;28;20300;-52
2022/02/26 00:54:30;;;;;;;30.60;23.70;;;27.20;74.60;;;;;;5083850;28;20103;-45
2022/02/26 00:56:56;;;;;;;28.08;21.95;;;27.20;74.40;;;;;;5102901;28;20029;-45
2022/02/26 00:59:23;;;;;;;28.52;23.02;;;27.20;74.50;;;;;;5104115;28;20031;-43
2022/02/26 01:01:50;;;;;;;46.00;31.33;;;27.20;74.30;;;;;;5103319;28;20051;-45
2022/02/26 01:04:17;;;;;;;39.13;27.30;;;27.20;74.30;;;;;;5107398;28;20069;-43
2022/02/26 01:06:44;;;;;;;33.47;25.23;;;27.20;74.00;;;;;;5108073;28;20080;-47
2022/02/26 01:09:10;;;;;;;25.90;22.63;;;27.20;73.90;;;;;;5107009;28;20032;-37
2022/02/26 01:11:37;;;;;;;30.13;21.25;;;27.10;73.90;;;;;;5107989;28;20186;-45
2022/02/26 01:14:04;;;;;;;27.85;19.10;;;27.10;73.90;;;;;;5107977;28;20032;-37
2022/02/26 01:16:30;;;;;;;21.63;18.42;;;27.10;73.70;;;;;;5108270;28;20047;-39
2022/02/26 01:18:57;;;;;;;25.63;18.85;;;27.10;73.40;;;;;;5107731;28;20086;-39
2022/02/26 01:21:24;;;;;;;20.05;17.75;;;27.10;73.60;;;;;;5108264;28;20066;-38
2022/02/26 01:23:50;;;;;;;22.13;18.15;;;27.10;73.40;;;;;;5107462;28;20119;-46
2022/02/26 01:26:18;;;;;;;21.85;18.20;;;27.10;73.60;;;;;;5108037;28;20016;-41
2022/02/26 01:28:45;;;;;;;27.58;18.85;;;27.10;73.90;;;;;;5107843;28;20035;-39
2022/02/26 01:31:12;;;;;;;25.33;19.65;;;27.20;73.70;;;;;;5107981;28;20032;-41
2022/02/26 01:33:39;;;;;;;21.55;19.30;;;27.20;73.60;;;;;;5107421;28;20027;-43
2022/02/26 01:36:06;;;;;;;20.55;18.35;;;27.10;73.60;;;;;;5107720;28;20227;-47
2022/02/26 01:38:34;;;;;;;25.90;18.38;;;27.10;73.70;;;;;;5107758;28;20027;-44
2022/02/26 01:41:06;;;;;;;31.30;18.70;;;27.10;73.70;;;;;;5107791;28;20020;-37
2022/02/26 01:43:34;;;;;;;24.67;17.75;;;27.10;73.80;;;;;;5107397;28;20328;-36
2022/02/26 01:46:02;;;;;;;21.50;18.02;;;27.10;73.40;;;;;;5107485;28;20024;-45
2022/02/26 01:48:29;;;;;;;29.92;18.48;;;27.00;73.90;;;;;;5107022;28;20316;-44
2022/02/26 01:50:56;;;;;;;19.92;17.77;;;27.00;73.50;;;;;;5107551;28;20354;-51
2022/02/26 01:53:23;;;;;;;25.70;17.73;;;27.00;73.60;;;;;;5107555;28;20031;-37
2022/02/26 01:55:51;;;;;;;22.35;17.85;;;27.00;73.30;;;;;;5107363;28;20029;-46
2022/02/26 01:58:18;;;;;;;23.80;17.50;;;27.00;73.30;;;;;;5107232;28;20271;-47
2022/02/26 02:00:45;;;;;;;19.02;16.77;;;27.00;73.30;;;;;;5107402;28;20028;-43
2022/02/26 02:03:11;;;;;;;21.95;17.40;;;27.00;73.40;;;;;;5105593;28;20032;-44
2022/02/26 02:05:39;;;;;;;29.95;18.13;;;27.00;73.80;;;;;;5107103;28;20361;-46
2022/02/26 02:08:06;;;;;;;29.85;17.42;;;27.00;73.50;;;;;;5106912;28;20034;-45
2022/02/26 02:10:36;;;;;;;30.25;24.30;;;27.00;73.40;;;;;;5105641;28;20048;-46
2022/02/26 02:13:03;;;;;;;31.75;28.27;;;27.00;73.60;;;;;;5106655;28;20028;-36
2022/02/26 02:15:38;;;;;;;37.97;34.40;;;27.00;73.50;;;;;;5106763;28;20039;-44
2022/02/26 02:18:06;;;;;;;29.48;24.20;;;27.00;73.30;;;;;;5106285;28;20049;-40
2022/02/26 02:20:33;;;;;;;21.63;18.83;;;27.00;73.20;;;;;;5106944;28;20032;-42
2022/02/26 02:23:00;;;;;;;26.58;18.95;;;26.90;73.10;;;;;;5106486;28;20091;-38
2022/02/26 02:25:33;;;;;;;20.00;17.75;;;27.00;73.30;;;;;;5106455;28;20044;-37
2022/02/26 02:28:01;;;;;;;24.25;20.77;;;26.90;73.30;;;;;;5105366;28;20324;-45
2022/02/26 02:30:28;;;;;;;73.57;66.20;;;26.90;73.20;;;;;;5106631;28;20039;-43
2022/02/26 02:32:56;;;;;;;52.63;47.10;;;27.00;73.60;;;;;;5106200;28;20016;-45
2022/02/26 02:35:27;;;;;;;64.55;57.85;;;27.00;73.30;;;;;;5106646;28;20082;-36
2022/02/26 02:37:54;;;;;;;58.67;53.00;;;27.00;73.20;;;;;;5106466;28;20030;-44
2022/02/26 02:40:22;;;;;;;49.67;44.70;;;27.00;73.50;;;;;;5106391;28;20020;-50
2022/02/26 02:42:50;;;;;;;34.30;30.88;;;27.00;73.20;;;;;;5106242;28;20035;-44
2022/02/26 02:45:18;;;;;;;28.00;25.05;;;27.00;73.60;;;;;;5106279;28;20143;-43
2022/02/26 02:47:48;;;;;;;26.55;23.88;;;27.00;73.30;;;;;;5095254;28;20036;-46
2022/02/26 02:50:15;;;;;;;23.27;20.83;;;27.00;73.20;;;;;;5104746;28;20039;-42
2022/02/26 02:52:44;;;;;;;22.83;19.48;;;27.00;72.90;;;;;;5106256;28;20042;-36
2022/02/26 02:55:12;;;;;;;20.38;17.58;;;27.00;72.70;;;;;;5106141;28;20028;-37
2022/02/26 02:57:39;;;;;;;18.27;16.48;;;27.00;72.80;;;;;;5106116;28;20012;-38
2022/02/26 03:00:09;;;;;;;23.05;17.50;;;27.00;73.00;;;;;;5105926;28;20393;-47
2022/02/26 03:02:36;;;;;;;23.52;16.30;;;27.00;72.80;;;;;;5105367;28;20121;-44
2022/02/26 03:05:03;;;;;;;18.60;16.77;;;27.00;72.40;;;;;;5105831;28;20050;-46
2022/02/26 03:07:30;;;;;;;21.10;16.25;;;27.00;72.60;;;;;;5105855;28;20032;-43
2022/02/26 03:09:56;;;;;;;17.95;16.08;;;27.10;72.60;;;;;;5105708;28;20020;-46
2022/02/26 03:12:23;;;;;;;18.08;16.23;;;27.10;72.90;;;;;;5105817;28;20259;-45
2022/02/26 03:14:50;;;;;;;19.90;17.05;;;27.00;72.80;;;;;;5105693;28;20088;-42
2022/02/26 03:17:16;;;;;;;17.77;15.90;;;27.00;72.80;;;;;;5105331;28;20031;-47
2022/02/26 03:19:47;;;;;;;17.52;15.80;;;27.10;72.90;;;;;;5104814;28;20096;-42
2022/02/26 03:22:15;;;;;;;19.60;17.00;;;27.00;72.60;;;;;;5102210;28;20020;-47
2022/02/26 03:24:42;;;;;;;39.85;36.25;;;27.10;72.80;;;;;;5095207;28;20131;-45
2022/02/26 03:27:08;;;;;;;80.90;73.55;;;27.10;72.60;;;;;;5095450;28;20012;-42
2022/02/26 03:29:35;;;;;;;35.78;32.08;;;27.10;72.20;;;;;;5094336;28;20020;-45
2022/02/26 03:32:02;;;;;;;26.92;23.90;;;27.10;72.50;;;;;;5094455;28;20194;-43
2022/02/26 03:34:29;;;;;;;35.83;26.92;;;27.10;72.80;;;;;;5105218;28;20032;-46
2022/02/26 03:36:57;;;;;;;36.70;27.42;;;27.10;72.60;;;;;;5105369;28;20038;-46
2022/02/26 03:39:24;;;;;;;28.25;25.40;;;27.10;73.00;;;;;;5105064;28;20035;-47
2022/02/26 03:41:52;;;;;;;27.77;25.17;;;27.10;72.90;;;;;;5105414;28;20020;-37
2022/02/26 03:44:19;;;;;;;32.70;25.30;;;27.10;73.10;;;;;;5104822;28;20048;-45
2022/02/26 03:46:45;;;;;;;23.75;21.52;;;27.10;73.10;;;;;;5104807;28;20216;-40
2022/02/26 03:49:12;;;;;;;20.98;18.58;;;27.10;73.00;;;;;;5104997;28;20032;-37
2022/02/26 03:51:39;;;;;;;20.83;18.75;;;27.10;73.10;;;;;;5105085;28;20016;-43
2022/02/26 03:54:05;;;;;;;18.50;16.67;;;27.00;72.80;;;;;;5105022;28;20208;-36
2022/02/26 03:56:32;;;;;;;19.15;17.35;;;27.10;72.60;;;;;;5103932;28;20052;-38
2022/02/26 03:58:59;;;;;;;18.75;17.05;;;27.10;72.70;;;;;;5104872;28;20065;-46
2022/02/26 04:01:25;;;;;;;18.25;16.55;;;27.10;72.80;;;;;;5104979;28;20060;-42
2022/02/26 04:03:53;;;;;;;18.00;16.13;;;27.10;72.70;;;;;;5097458;28;20024;-35
2022/02/26 04:06:20;;;;;;;18.73;16.48;;;27.10;72.70;;;;;;5093702;28;20226;-39
2022/02/26 04:08:47;;;;;;;17.98;16.17;;;27.10;72.50;;;;;;5094872;28;20043;-38
2022/02/26 04:11:15;;;;;;;18.17;16.27;;;27.10;72.50;;;;;;5092329;28;20041;-45
2022/02/26 04:13:42;;;;;;;37.50;33.60;;;27.10;72.70;;;;;;5090608;28;20036;-48
2022/02/26 04:16:09;;;;;;;34.42;31.33;;;27.10;72.60;;;;;;5098881;28;20024;-44
2022/02/26 04:18:35;;;;;;;50.20;45.35;;;27.10;71.90;;;;;;5104529;28;20020;-44
2022/02/26 04:21:02;;;;;;;28.13;23.60;;;27.10;72.20;;;;;;5105032;28;20089;-44
2022/02/26 04:23:29;;;;;;;26.88;19.52;;;27.10;72.30;;;;;;5104155;28;20012;-44
2022/02/26 04:25:55;;;;;;;22.10;18.02;;;27.10;72.50;;;;;;5104965;28;20212;-44
2022/02/26 04:28:22;;;;;;;21.70;18.45;;;27.10;72.30;;;;;;5103222;28;20204;-43
2022/02/26 04:30:50;;;;;;;26.88;21.35;;;27.00;71.80;;;;;;5104529;28;20044;-44
2022/02/26 04:33:16;;;;;;;25.20;21.40;;;27.10;72.30;;;;;;5104256;28;20099;-36
2022/02/26 04:35:43;;;;;;;20.83;18.65;;;27.10;73.00;;;;;;5098276;28;20212;-36
2022/02/26 04:38:10;;;;;;;21.60;19.52;;;27.10;72.60;;;;;;5085492;28;20028;-52
2022/02/26 04:40:36;;;;;;;21.48;19.10;;;27.10;72.60;;;;;;5104573;28;20015;-45
2022/02/26 04:43:03;;;;;;;20.50;18.40;;;27.10;72.50;;;;;;5101786;28;20344;-40
2022/02/26 04:45:30;;;;;;;19.38;17.15;;;27.10;72.50;;;;;;5093825;28;20041;-38
2022/02/26 04:47:58;;;;;;;20.67;18.48;;;27.10;72.60;;;;;;5092546;28;20012;-39
2022/02/26 04:50:25;;;;;;;18.42;16.63;;;27.10;72.50;;;;;;5094704;28;20029;-47
2022/02/26 04:52:51;;;;;;;17.95;16.20;;;27.10;72.40;;;;;;5091730;28;20325;-46
2022/02/26 04:55:18;;;;;;;19.38;17.35;;;27.10;72.50;;;;;;5092691;28;20087;-36
2022/02/26 04:57:45;;;;;;;19.63;16.70;;;27.10;72.30;;;;;;5092808;28;20028;-37
2022/02/26 05:00:12;;;;;;;17.90;15.35;;;27.10;72.00;;;;;;5091039;28;20182;-44
2022/02/26 05:02:40;;;;;;;18.40;16.45;;;27.10;72.20;;;;;;5083744;28;20028;-37
2022/02/26 05:05:07;;;;;;;17.42;15.73;;;27.10;72.10;;;;;;5083953;28;20028;-36
2022/02/26 05:07:34;;;;;;;17.55;15.43;;;27.10;72.00;;;;;;5083703;28;20016;-39
2022/02/26 05:10:01;;;;;;;17.92;16.20;;;27.10;71.80;;;;;;5084100;28;20033;-37
2022/02/26 05:12:27;;;;;;;17.88;15.88;;;27.10;72.10;;;;;;5083781;28;20043;-36
2022/02/26 05:14:55;;;;;;;17.20;15.77;;;27.10;72.10;;;;;;5083624;28;20069;-40
2022/02/26 05:17:22;;;;;;;19.48;15.73;;;27.10;71.80;;;;;;5083638;28;20016;-44
2022/02/26 05:19:48;;;;;;;17.13;15.45;;;27.10;71.90;;;;;;5083612;28;20103;-39
2022/02/26 05:22:15;;;;;;;16.80;15.13;;;27.10;72.00;;;;;;5083339;28;20036;-43
2022/02/26 05:24:42;;;;;;;16.65;15.10;;;27.10;71.80;;;;;;5083632;28;20389;-38
2022/02/26 05:27:09;;;;;;;16.13;14.52;;;27.10;72.00;;;;;;5083574;28;20028;-36
2022/02/26 05:29:35;;;;;;;16.92;15.23;;;27.10;72.00;;;;;;5083468;28;20367;-48
2022/02/26 05:32:03;;;;;;;16.77;15.18;;;27.10;71.90;;;;;;5083510;28;20329;-39
2022/02/26 05:34:29;;;;;;;17.98;15.10;;;27.10;72.10;;;;;;5083826;28;20292;-40
2022/02/26 05:36:56;;;;;;;17.50;15.45;;;27.10;72.10;;;;;;5083463;28;20107;-35
2022/02/26 05:39:23;;;;;;;17.40;15.27;;;27.10;72.20;;;;;;5083355;28;20020;-38
2022/02/26 05:41:49;;;;;;;17.45;15.73;;;27.10;72.10;;;;;;5083448;28;20027;-37
2022/02/26 05:44:16;;;;;;;16.33;14.73;;;27.10;72.00;;;;;;5083127;28;20099;-42
2022/02/26 05:46:42;;;;;;;16.63;15.02;;;27.10;72.10;;;;;;5082020;28;20021;-43
2022/02/26 05:49:09;;;;;;;16.73;15.10;;;27.10;71.80;;;;;;5085058;28;20012;-36
2022/02/26 05:51:35;;;;;;;17.83;15.90;;;27.10;71.80;;;;;;5087009;28;20056;-47
2022/02/26 05:54:02;;;;;;;17.08;15.35;;;27.10;71.80;;;;;;5086859;28;20020;-44
2022/02/26 05:56:28;;;;;;;16.55;14.85;;;27.10;72.00;;;;;;5087482;28;20048;-41
2022/02/26 05:58:55;;;;;;;16.42;14.90;;;27.10;71.90;;;;;;5086917;28;20099;-36
2022/02/26 06:01:21;;;;;;;17.63;15.50;;;27.10;71.70;;;;;;5087067;28;20247;-36
2022/02/26 06:03:48;;;;;;;16.95;15.35;;;27.10;71.90;;;;;;5086940;28;20095;-37
2022/02/26 06:06:14;;;;;;;16.70;15.10;;;27.10;71.60;;;;;;5087179;28;20033;-45
2022/02/26 06:08:41;;;;;;;16.05;14.45;;;27.10;72.40;;;;;;5086607;28;20020;-37
2022/02/26 06:11:08;;;;;;;16.98;14.45;;;27.10;71.70;;;;;;5087084;28;20020;-38
2022/02/26 06:13:34;;;;;;;16.92;15.15;;;27.10;71.30;;;;;;5086613;28;20039;-41
2022/02/26 06:16:01;;;;;;;15.70;14.23;;;27.10;71.60;;;;;;5086690;28;20035;-47
2022/02/26 06:18:29;;;;;;;15.98;14.38;;;27.10;71.50;;;;;;5086558;28;20044;-38
2022/02/26 06:20:56;;;;;;;15.98;14.30;;;27.10;71.80;;;;;;5086848;28;20036;-38
2022/02/26 06:23:22;;;;;;;15.70;14.10;;;27.10;72.10;;;;;;5086135;28;20291;-37
2022/02/26 06:25:49;;;;;;;16.10;14.40;;;27.10;71.40;;;;;;5086617;28;20048;-36
2022/02/26 06:28:16;;;;;;;15.95;14.35;;;27.10;71.70;;;;;;5086571;28;20202;-39
2022/02/26 06:30:42;;;;;;;16.45;14.85;;;27.10;71.80;;;;;;5086535;28;20323;-38
2022/02/26 06:33:12;;;;;;;16.38;13.80;;;27.10;71.90;;;;;;5086360;28;20385;-37
2022/02/26 06:35:39;;;;;;;15.75;14.07;;;27.10;71.80;;;;;;5086543;28;20036;-38
2022/02/26 06:38:06;;;;;;;17.17;13.82;;;27.10;71.70;;;;;;5086158;28;20341;-40
2022/02/26 06:40:33;;;;;;;15.15;13.68;;;27.10;71.70;;;;;;5086490;28;20040;-41
2022/02/26 06:42:59;;;;;;;16.48;14.05;;;27.10;71.70;;;;;;5086054;28;20212;-38
2022/02/26 06:45:26;;;;;;;15.18;13.50;;;27.10;72.00;;;;;;5086250;28;20324;-39
2022/02/26 06:47:52;;;;;;;15.55;14.00;;;27.10;71.90;;;;;;5085999;28;20087;-36
2022/02/26 06:50:19;;;;;;;16.15;13.70;;;27.10;72.10;;;;;;5086181;28;20017;-40
2022/02/26 06:52:46;;;;;;;19.33;14.30;;;27.10;72.40;;;;;;5085939;28;20028;-39
2022/02/26 06:55:12;;;;;;;16.95;13.13;;;27.10;72.50;;;;;;5086062;28;20040;-37
2022/02/26 06:57:40;;;;;;;16.25;14.50;;;27.10;72.40;;;;;;5085884;28;20016;-38
2022/02/26 07:00:08;;;;;;;16.00;13.65;;;27.10;72.30;;;;;;5085089;28;20024;-39
2022/02/26 07:02:34;;;;;;;15.20;13.60;;;27.00;72.50;;;;;;5085783;28;20059;-37
2022/02/26 07:05:01;;;;;;;18.60;14.00;;;27.00;72.40;;;;;;5085847;28;20024;-38
2022/02/26 07:07:29;;;;;;;15.23;13.73;;;27.00;72.30;;;;;;5085630;28;20033;-38
2022/02/26 07:09:55;;;;;;;15.20;13.48;;;27.00;72.30;;;;;;5084485;28;20359;-38
2022/02/26 07:12:22;;;;;;;18.88;14.80;;;27.00;72.40;;;;;;5085583;28;20029;-38
2022/02/26 07:14:49;;;;;;;18.23;14.32;;;27.00;72.60;;;;;;5085612;28;20092;-40
2022/02/26 07:17:16;;;;;;;18.08;14.05;;;27.00;72.50;;;;;;5085641;28;20020;-44
2022/02/26 07:19:44;;;;;;;16.20;13.95;;;27.00;72.40;;;;;;5085549;28;20028;-37
2022/02/26 07:22:10;;;;;;;15.18;13.57;;;27.00;72.40;;;;;;5085289;28;20033;-38
2022/02/26 07:24:37;;;;;;;15.50;13.75;;;27.00;72.50;;;;;;5085089;28;20044;-36
2022/02/26 07:27:04;;;;;;;16.00;14.30;;;27.00;72.80;;;;;;5085308;28;20027;-37
2022/02/26 07:29:30;;;;;;;16.35;14.38;;;27.00;72.60;;;;;;5085269;28;20323;-38
2022/02/26 07:31:57;;;;;;;16.10;14.50;;;27.00;72.70;;;;;;5085021;28;20117;-39
2022/02/26 07:34:24;;;;;;;15.50;14.02;;;27.00;72.90;;;;;;5085119;28;20028;-41
2022/02/26 07:36:50;;;;;;;15.27;13.82;;;27.00;72.60;;;;;;5085144;28;20024;-37
2022/02/26 07:39:17;;;;;;;16.13;14.43;;;27.00;72.50;;;;;;5084849;28;20336;-39
2022/02/26 07:41:43;;;;;;;15.38;13.98;;;27.00;72.40;;;;;;5092575;28;20024;-44
2022/02/26 07:44:10;;;;;;;15.90;14.30;;;27.00;72.30;;;;;;5105136;28;20040;-38
2022/02/26 07:46:36;;;;;;;16.70;14.18;;;27.00;72.60;;;;;;5105087;28;20092;-35
2022/02/26 07:49:03;;;;;;;14.80;13.43;;;27.00;72.90;;;;;;5104193;28;20028;-37
2022/02/26 07:51:30;;;;;;;16.33;14.55;;;26.90;72.80;;;;;;5105231;28;20367;-41
2022/02/26 07:53:57;;;;;;;15.57;13.80;;;26.90;72.90;;;;;;5104878;28;20035;-38
2022/02/26 07:56:23;;;;;;;15.95;14.25;;;26.90;73.00;;;;;;5105485;28;20055;-37
2022/02/26 07:58:50;;;;;;;15.88;14.30;;;26.90;72.80;;;;;;5104934;28;20281;-38
2022/02/26 08:01:17;;;;;;;15.50;14.10;;;26.90;72.90;;;;;;5105150;28;20208;-37
2022/02/26 08:03:44;;;;;;;16.08;14.35;;;26.90;73.00;;;;;;5104805;28;20050;-37
2022/02/26 08:06:11;;;;;;;16.25;14.68;;;26.90;73.20;;;;;;5105172;28;20073;-40
2022/02/26 08:08:37;;;;;;;15.98;14.40;;;26.90;73.20;;;;;;5104737;28;20320;-37
2022/02/26 08:11:04;;;;;;;16.40;14.80;;;26.90;73.20;;;;;;5105036;28;20054;-38
2022/02/26 08:13:30;;;;;;;16.02;13.90;;;26.90;73.30;;;;;;5104696;28;20039;-38
2022/02/26 08:15:57;;;;;;;15.50;14.05;;;26.90;73.50;;;;;;5104847;28;20054;-45
2022/02/26 08:18:23;;;;;;;15.40;13.85;;;26.90;73.40;;;;;;5104678;28;20087;-44
2022/02/26 08:20:50;;;;;;;17.33;14.20;;;26.90;73.20;;;;;;5104863;28;20079;-46
2022/02/26 08:23:17;;;;;;;17.45;14.73;;;26.90;73.10;;;;;;5104289;28;20224;-45
2022/02/26 08:25:44;;;;;;;15.77;14.02;;;26.90;73.20;;;;;;5104658;28;20094;-46
2022/02/26 08:28:10;;;;;;;15.25;13.85;;;26.90;73.10;;;;;;5104519;28;20027;-46
2022/02/26 08:30:37;;;;;;;15.77;14.25;;;26.90;73.10;;;;;;5104604;28;20091;-50
2022/02/26 08:33:04;;;;;;;16.17;14.75;;;26.90;73.20;;;;;;5104382;28;20039;-46
2022/02/26 08:35:30;;;;;;;16.88;14.20;;;26.90;73.20;;;;;;5104604;28;20363;-38
2022/02/26 08:37:57;;;;;;;17.48;13.73;;;26.90;72.80;;;;;;5104613;28;20052;-37
2022/02/26 08:40:24;;;;;;;16.08;14.55;;;26.90;73.10;;;;;;5104464;28;20032;-40
2022/02/26 08:42:50;;;;;;;16.00;14.50;;;26.90;73.00;;;;;;5104153;28;20020;-37
2022/02/26 08:45:17;;;;;;;16.48;14.65;;;26.90;72.90;;;;;;5104411;28;20064;-36
2022/02/26 08:47:43;;;;;;;15.75;14.10;;;26.90;72.90;;;;;;5104084;28;20016;-37
2022/02/26 08:50:13;;;;;;;16.00;14.45;;;26.90;73.10;;;;;;5104371;28;20024;-37
2022/02/26 08:52:40;;;;;;;15.55;13.82;;;26.90;73.20;;;;;;5104092;28;20227;-38
2022/02/26 08:55:08;;;;;;;15.98;14.30;;;26.90;73.10;;;;;;5104091;28;20331;-38
2022/02/26 08:57:35;;;;;;;15.43;13.75;;;26.90;73.30;;;;;;5104094;28;20032;-45
2022/02/26 09:00:04;;;;;;;15.80;14.20;;;26.90;73.20;;;;;;5104106;28;20024;-44
2022/02/26 09:02:30;;;;;;;15.77;14.23;;;26.90;73.30;;;;;;5103805;28;20024;-36
2022/02/26 09:04:57;;;;;;;16.20;14.68;;;26.90;73.20;;;;;;5104301;28;20130;-36
2022/02/26 09:07:24;;;;;;;15.50;13.98;;;26.90;73.20;;;;;;5104065;28;20021;-36
2022/02/26 09:09:51;;;;;;;17.77;14.35;;;26.90;73.30;;;;;;5103738;28;20024;-35
2022/02/26 09:12:18;;;;;;;15.88;14.27;;;26.90;73.20;;;;;;5103777;28;20061;-36
2022/02/26 09:14:45;;;;;;;15.98;14.27;;;26.90;73.30;;;;;;5104013;28;20032;-36
2022/02/26 09:17:12;;;;;;;23.02;14.95;;;26.90;73.40;;;;;;5103750;28;20028;-36
2022/02/26 09:19:38;;;;;;;20.65;14.25;;;26.80;73.40;;;;;;5103907;28;20223;-50
2022/02/26 09:22:05;;;;;;;16.05;14.55;;;26.80;73.40;;;;;;5103749;28;20031;-47
2022/02/26 09:24:33;;;;;;;15.85;14.30;;;26.80;73.70;;;;;;5105997;28;20082;-44
2022/02/26 09:27:00;;;;;;;17.73;15.05;;;26.80;73.70;;;;;;5107826;28;20092;-42
2022/02/26 09:29:26;;;;;;;16.17;14.50;;;26.80;73.80;;;;;;5107826;28;20300;-46
2022/02/26 09:31:53;;;;;;;16.48;14.80;;;26.80;73.90;;;;;;5107695;28;20224;-36
2022/02/26 09:34:22;;;;;;;15.93;14.30;;;26.80;74.10;;;;;;5107763;28;20304;-37
2022/02/26 09:36:50;;;;;;;17.10;15.25;;;26.80;74.20;;;;;;5107889;28;20099;-39
2022/02/26 09:39:18;;;;;;;16.17;14.40;;;26.80;74.30;;;;;;5107855;28;20031;-40
2022/02/26 09:41:48;;;;;;;15.73;14.13;;;26.80;74.40;;;;;;5107600;28;20095;-37
2022/02/26 09:44:16;;;;;;;15.95;14.18;;;26.80;74.40;;;;;;5107415;28;20020;-42
2022/02/26 09:46:43;;;;;;;16.05;14.30;;;26.80;74.50;;;;;;5107389;28;20028;-36
2022/02/26 09:49:10;;;;;;;16.05;14.48;;;26.80;74.50;;;;;;5107393;28;20324;-37
2022/02/26 09:51:41;;;;;;;17.30;14.60;;;26.80;74.80;;;;;;5107420;28;20028;-38
2022/02/26 09:54:08;;;;;;;15.90;14.35;;;26.80;74.70;;;;;;5107336;28;20051;-42
2022/02/26 09:56:36;;;;;;;16.95;14.57;;;26.80;74.70;;;;;;5107305;28;20027;-37
2022/02/26 09:59:04;;;;;;;16.63;14.88;;;26.80;75.00;;;;;;5107304;28;20019;-44
2022/02/26 10:01:31;;;;;;;52.92;16.75;;;26.80;75.00;;;;;;5107656;28;20308;-35
2022/02/26 10:04:11;;;;;;;18.67;14.60;;;26.80;75.20;;;;;;5107186;28;20024;-38
2022/02/26 10:06:38;;;;;;;19.23;14.85;;;26.80;75.20;;;;;;5106952;28;20361;-37
2022/02/26 10:09:14;;;;;;;19.58;14.50;;;26.70;75.20;;;;;;5107145;28;20023;-38
2022/02/26 10:11:41;;;;;;;19.05;14.50;;;26.80;75.40;;;;;;5106922;28;20035;-38
2022/02/26 10:14:10;;;;;;;20.73;14.45;;;26.80;75.70;;;;;;5107118;28;20048;-38
2022/02/26 10:16:46;;;;;;;16.63;14.70;;;26.70;75.80;;;;;;5106964;28;20073;-37
2022/02/26 10:19:27;;;;;;;18.52;14.20;;;26.80;76.50;;;;;;5106767;28;20363;-37
2022/02/26 10:21:57;;;;;;;17.38;14.80;;;26.70;75.90;;;;;;5106825;28;20024;-40
2022/02/26 10:24:24;;;;;;;17.65;14.63;;;26.70;75.90;;;;;;5106542;28;20054;-40
2022/02/26 10:26:57;;;;;;;19.70;14.70;;;26.70;75.90;;;;;;5106665;28;20047;-44
2022/02/26 10:29:24;;;;;;;15.73;14.20;;;26.70;76.00;;;;;;5106622;28;20319;-36
2022/02/26 10:32:00;;;;;;;19.02;15.02;;;26.70;76.10;;;;;;5106463;28;20198;-39
2022/02/26 10:34:38;;;;;;;16.15;13.98;;;26.70;76.20;;;;;;5106201;28;20016;-44
2022/02/26 10:37:11;;;;;;;21.05;14.80;;;26.70;76.20;;;;;;5105685;28;20020;-39
2022/02/26 10:39:39;;;;;;;18.20;15.10;;;26.70;76.30;;;;;;5106406;28;20035;-48
2022/02/26 10:42:08;;;;;;;18.67;14.57;;;26.70;76.30;;;;;;5106431;28;20321;-47
2022/02/26 10:44:36;;;;;;;26.08;14.93;;;26.70;76.30;;;;;;5106328;28;20031;-44
2022/02/26 10:47:09;;;;;;;20.23;14.00;;;26.70;76.40;;;;;;5106361;28;20278;-41
2022/02/26 10:49:47;;;;;;;16.92;13.85;;;26.70;76.40;;;;;;5106552;28;20093;-40
2022/02/26 10:52:15;;;;;;;18.10;14.15;;;26.70;76.60;;;;;;5106176;28;20103;-40
2022/02/26 10:54:49;;;;;;;18.30;13.50;;;26.70;76.50;;;;;;5106307;28;20304;-38
2022/02/26 10:57:16;;;;;;;18.63;12.23;;;26.80;76.60;;;;;;5106299;28;20276;-37
2022/02/26 10:59:45;;;;;;;25.92;13.30;;;26.70;76.60;;;;;;5106172;28;20275;-39
2022/02/26 11:02:22;;;;;;;15.73;12.13;;;26.70;76.50;;;;;;5105909;28;20069;-44
2022/02/26 11:04:50;;;;;;;17.65;12.00;;;26.70;76.50;;;;;;5106011;28;20024;-44
2022/02/26 11:07:17;;;;;;;21.60;11.95;;;26.70;76.80;;;;;;5105837;28;20016;-43
2022/02/26 11:09:47;;;;;;;19.48;12.15;;;26.80;76.90;;;;;;5105794;28;20043;-43
2022/02/26 11:12:16;;;;;;;20.02;12.40;;;26.70;77.00;;;;;;5105859;28;20012;-43
2022/02/26 11:14:48;;;;;;;22.17;12.48;;;26.70;77.20;;;;;;5105977;28;20031;-36
2022/02/26 11:17:16;;;;;;;18.88;11.65;;;26.80;77.30;;;;;;5105938;28;20051;-38
2022/02/26 11:19:48;;;;;;;19.25;11.85;;;26.70;77.40;;;;;;5105860;28;20350;-38
2022/02/26 11:22:16;;;;;;;17.70;11.83;;;26.70;77.50;;;;;;5105575;28;20036;-39
2022/02/26 11:24:44;;;;;;;20.50;11.48;;;26.70;77.50;;;;;;5105551;28;20286;-38
2022/02/26 11:27:11;;;;;;;22.98;12.07;;;26.70;77.70;;;;;;5105491;28;20020;-41
2022/02/26 11:29:41;;;;;;;31.17;11.88;;;26.70;77.70;;;;;;5105308;28;20051;-38
2022/02/26 11:32:12;;;;;;;17.00;12.70;;;26.70;77.80;;;;;;5105405;28;20020;-41
2022/02/26 11:34:39;;;;;;;16.60;12.13;;;26.70;77.80;;;;;;5105550;28;20043;-37
2022/02/26 11:37:09;;;;;;;18.30;11.85;;;26.70;77.80;;;;;;5105251;28;20215;-46
2022/02/26 11:39:39;;;;;;;20.83;12.48;;;26.70;78.00;;;;;;5105548;28;20032;-37
2022/02/26 11:42:24;;;;;;;15.05;12.60;;;26.60;78.40;;;;;;5105236;28;20364;-38
2022/02/26 11:45:01;;;;;;;29.20;20.48;;;26.60;78.80;;;;;;5105437;28;20095;-48
2022/02/26 11:47:36;;;;;;;19.35;16.38;;;26.60;78.90;;;;;;5104690;28;20015;-43
2022/02/26 11:50:10;;;;;;;22.15;13.50;;;26.60;79.50;;;;;;5105467;28;20039;-43
2022/02/26 11:52:47;;;;;;;19.02;13.13;;;26.60;80.00;;;;;;5104989;28;20024;-44
2022/02/26 11:55:23;;;;;;;20.67;14.10;;;26.60;80.40;;;;;;5105188;28;20044;-37
2022/02/26 11:57:52;;;;;;;25.70;13.80;;;26.60;80.90;;;;;;5104964;28;20015;-36
2022/02/26 12:00:22;;;;;;;21.63;14.27;;;26.60;80.80;;;;;;5104995;28;20078;-37
2022/02/26 12:03:28;;;;;;;23.27;14.18;;;26.60;81.30;;;;;;5104670;28;20061;-35
2022/02/26 12:06:16;;;;;;;24.40;14.85;;;26.60;81.40;;;;;;5061254;28;20309;-36
2022/02/26 12:08:50;;;;;;;21.33;15.80;;;26.60;81.80;;;;;;5093415;28;20028;-36
2022/02/26 12:11:25;;;;;;;22.58;15.45;;;26.60;82.00;;;;;;5084916;28;20029;-37
2022/02/26 12:13:58;;;;;;;21.08;15.10;;;26.60;82.40;;;;;;5084228;28;20027;-47
2022/02/26 12:16:42;;;;;;;;;;;26.60;82.80;;;;;;5085191;28;20028;-37
2022/02/26 12:19:16;;;;;;;20.63;14.90;;;26.50;82.80;;;;;;5084265;28;20233;-36
2022/02/26 12:21:49;;;;;;;22.70;14.98;;;26.50;83.20;;;;;;5084406;28;20344;-36
2022/02/26 12:24:25;;;;;;;21.63;14.88;;;26.50;83.40;;;;;;5084047;28;20321;-43
2022/02/26 12:27:07;;;;;;;17.65;14.55;;;26.50;83.80;;;;;;5084065;28;20071;-45
2022/02/26 12:29:40;;;;;;;22.50;14.13;;;26.50;83.40;;;;;;5084038;28;20027;-45
2022/02/26 12:32:08;;;;;;;21.38;14.18;;;26.50;83.20;;;;;;5084144;28;20036;-36
2022/02/26 12:34:52;;;;;;;17.83;14.48;;;26.50;83.20;;;;;;5084359;28;20280;-39